This is the latest recevied weather packets stored in our database for station/object N1MCJ. If no packets are shown the sender has not sent any weather packets the latest 10 day(s).
| Time | Temp. | Humidity | Pressure | Rain* | Wind** | Luminosity | Snow |
|---|---|---|---|---|---|---|---|
| 1777396167 | 17.22° C | 42% | 1012.6 hPa | 0 mm | - | 274 W/m² | - |
| 1777395266 | 17.22° C | 43% | 1012.6 hPa | 0 mm | - | 362 W/m² | - |
| 1777394363 | 17.78° C | 43% | 1012.8 hPa | 0 mm | - | 206 W/m² | - |
| 1777393460 | 16.67° C | 45% | 1012.6 hPa | 0 mm | - | 194 W/m² | - |
| 1777392560 | 17.22° C | 44% | 1012.7 hPa | 0 mm | - | 173 W/m² | - |
| 1777391659 | 16.67° C | 46% | 1013 hPa | 0 mm | - | 427 W/m² | - |
| 1777390753 | 16.67° C | 47% | 1012.8 hPa | 0 mm | - | 354 W/m² | - |
| 1777389849 | 16.67° C | 48% | 1012.9 hPa | 0 mm | - | 265 W/m² | - |
| 1777388947 | 16.11° C | 49% | 1013 hPa | 0 mm | - | 566 W/m² | - |
| 1777388045 | 16.11° C | 49% | 1013.2 hPa | 0 mm | - | 89 W/m² | - |
| 1777387144 | 15.56° C | 50% | 1013 hPa | 0 mm | - | 335 W/m² | - |
| 1777386240 | 15° C | 49% | 1013.4 hPa | 0 mm | - | 419 W/m² | - |
| 1777385337 | 15° C | 49% | 1013.5 hPa | 0 mm | - | 75 W/m² | - |
| 1777384435 | 14.44° C | 52% | 1013.2 hPa | 0 mm | - | 182 W/m² | - |
| 1777383535 | 14.44° C | 53% | 1013.4 hPa | 0 mm | - | 254 W/m² | - |
| 1777382630 | 13.89° C | 56% | 1013.3 hPa | 0 mm | - | 52 W/m² | - |
| 1777381730 | 13.89° C | 54% | 1013.4 hPa | 0 mm | - | 38 W/m² | - |
| 1777380830 | 13.33° C | 60% | 1013.1 hPa | 0 mm | - | 219 W/m² | - |
| 1777379926 | 11.67° C | 64% | 1013.1 hPa | 0 mm | - | 108 W/m² | - |
| 1777379023 | 11.67° C | 65% | 1013.4 hPa | 0 mm | - | 43 W/m² | - |
| 1777378122 | 11.11° C | 68% | 1013.6 hPa | 0 mm | - | 51 W/m² | - |
| 1777377218 | 11.11° C | 69% | 1013.5 hPa | 0 mm | - | 36 W/m² | - |
| 1777376316 | 10° C | 73% | 1013.6 hPa | 0 mm | - | 61 W/m² | - |
| 1777375412 | 8.33° C | 82% | 1013.4 hPa | 0 mm | - | 49 W/m² | - |
| 1777374510 | 6.67° C | 88% | 1013.4 hPa | 0 mm | - | 28 W/m² | - |
* Rain latest hour (hover to see other rain measurements)
** Current wind speed in m/s (hover to see current wind gust speed)